sensor_id;sensor_type;location;lat;lon;timestamp;P1;durP1;ratioP1;P2;durP2;ratioP2
4529;SDS011;2277;51.626;7.516;2023-02-15T00:01:51;7.17;;;6.60;;
4529;SDS011;2277;51.626;7.516;2023-02-15T00:04:18;8.83;;;6.90;;
4529;SDS011;2277;51.626;7.516;2023-02-15T00:06:46;9.00;;;6.77;;
4529;SDS011;2277;51.626;7.516;2023-02-15T00:09:12;10.37;;;8.37;;
4529;SDS011;2277;51.626;7.516;2023-02-15T00:11:38;11.63;;;6.57;;
4529;SDS011;2277;51.626;7.516;2023-02-15T00:14:09;14.63;;;8.43;;
4529;SDS011;2277;51.626;7.516;2023-02-15T00:16:37;11.70;;;6.87;;
4529;SDS011;2277;51.626;7.516;2023-02-15T00:19:04;11.23;;;6.97;;
4529;SDS011;2277;51.626;7.516;2023-02-15T00:21:30;10.27;;;8.50;;
4529;SDS011;2277;51.626;7.516;2023-02-15T00:23:57;10.13;;;7.60;;
4529;SDS011;2277;51.626;7.516;2023-02-15T00:26:24;12.60;;;8.87;;
4529;SDS011;2277;51.626;7.516;2023-02-15T00:28:50;8.00;;;7.20;;
4529;SDS011;2277;51.626;7.516;2023-02-15T00:31:16;10.43;;;7.27;;
4529;SDS011;2277;51.626;7.516;2023-02-15T00:33:42;14.53;;;7.50;;
4529;SDS011;2277;51.626;7.516;2023-02-15T00:36:08;10.63;;;6.53;;
4529;SDS011;2277;51.626;7.516;2023-02-15T00:38:35;8.10;;;7.10;;
4529;SDS011;2277;51.626;7.516;2023-02-15T00:41:02;10.70;;;9.80;;
4529;SDS011;2277;51.626;7.516;2023-02-15T00:43:31;15.37;;;8.60;;
4529;SDS011;2277;51.626;7.516;2023-02-15T00:45:57;11.63;;;7.90;;
4529;SDS011;2277;51.626;7.516;2023-02-15T00:48:24;14.30;;;7.73;;
4529;SDS011;2277;51.626;7.516;2023-02-15T00:50:50;8.97;;;8.17;;
4529;SDS011;2277;51.626;7.516;2023-02-15T00:53:17;13.80;;;9.00;;
4529;SDS011;2277;51.626;7.516;2023-02-15T00:55:43;12.53;;;8.03;;
4529;SDS011;2277;51.626;7.516;2023-02-15T00:58:09;10.13;;;8.13;;
4529;SDS011;2277;51.626;7.516;2023-02-15T01:00:35;6.30;;;5.70;;
4529;SDS011;2277;51.626;7.516;2023-02-15T01:03:01;8.73;;;7.87;;
4529;SDS011;2277;51.626;7.516;2023-02-15T01:05:27;9.10;;;8.07;;
4529;SDS011;2277;51.626;7.516;2023-02-15T01:07:54;5.40;;;4.90;;
4529;SDS011;2277;51.626;7.516;2023-02-15T01:10:20;16.23;;;8.00;;
4529;SDS011;2277;51.626;7.516;2023-02-15T01:12:46;5.87;;;5.40;;
4529;SDS011;2277;51.626;7.516;2023-02-15T01:15:11;8.47;;;7.73;;
4529;SDS011;2277;51.626;7.516;2023-02-15T01:17:37;12.90;;;7.20;;
4529;SDS011;2277;51.626;7.516;2023-02-15T01:20:03;8.60;;;7.70;;
4529;SDS011;2277;51.626;7.516;2023-02-15T01:22:29;10.37;;;6.03;;
4529;SDS011;2277;51.626;7.516;2023-02-15T01:24:54;9.37;;;7.53;;
4529;SDS011;2277;51.626;7.516;2023-02-15T01:27:20;12.50;;;8.13;;
4529;SDS011;2277;51.626;7.516;2023-02-15T01:29:45;15.60;;;7.57;;
4529;SDS011;2277;51.626;7.516;2023-02-15T01:32:12;8.60;;;6.03;;
4529;SDS011;2277;51.626;7.516;2023-02-15T01:34:38;9.50;;;7.00;;
4529;SDS011;2277;51.626;7.516;2023-02-15T01:37:03;8.43;;;6.80;;
4529;SDS011;2277;51.626;7.516;2023-02-15T01:39:29;7.60;;;6.90;;
4529;SDS011;2277;51.626;7.516;2023-02-15T01:41:54;8.70;;;6.67;;
4529;SDS011;2277;51.626;7.516;2023-02-15T01:47:13;8.57;;;7.23;;
4529;SDS011;2277;51.626;7.516;2023-02-15T01:49:44;7.53;;;6.63;;
4529;SDS011;2277;51.626;7.516;2023-02-15T01:52:12;13.33;;;7.97;;
4529;SDS011;2277;51.626;7.516;2023-02-15T01:54:41;8.23;;;7.20;;
4529;SDS011;2277;51.626;7.516;2023-02-15T01:57:13;9.80;;;8.77;;
4529;SDS011;2277;51.626;7.516;2023-02-15T01:59:43;8.77;;;7.37;;
4529;SDS011;2277;51.626;7.516;2023-02-15T02:02:13;10.13;;;6.27;;
4529;SDS011;2277;51.626;7.516;2023-02-15T02:04:44;6.67;;;6.10;;
4529;SDS011;2277;51.626;7.516;2023-02-15T02:07:16;6.53;;;5.97;;
4529;SDS011;2277;51.626;7.516;2023-02-15T02:09:44;11.33;;;6.67;;
4529;SDS011;2277;51.626;7.516;2023-02-15T02:12:10;9.60;;;6.77;;
4529;SDS011;2277;51.626;7.516;2023-02-15T02:14:37;9.47;;;8.57;;
4529;SDS011;2277;51.626;7.516;2023-02-15T02:17:10;11.87;;;7.37;;
4529;SDS011;2277;51.626;7.516;2023-02-15T02:28:13;8.50;;;7.70;;
4529;SDS011;2277;51.626;7.516;2023-02-15T02:46:48;6.90;;;5.83;;
4529;SDS011;2277;51.626;7.516;2023-02-15T02:49:16;7.83;;;6.17;;
4529;SDS011;2277;51.626;7.516;2023-02-15T02:51:41;9.93;;;7.83;;
4529;SDS011;2277;51.626;7.516;2023-02-15T02:54:07;8.90;;;6.50;;
4529;SDS011;2277;51.626;7.516;2023-02-15T02:56:37;8.33;;;5.63;;
4529;SDS011;2277;51.626;7.516;2023-02-15T03:01:55;6.37;;;5.60;;
4529;SDS011;2277;51.626;7.516;2023-02-15T03:04:31;6.10;;;5.60;;
4529;SDS011;2277;51.626;7.516;2023-02-15T03:07:07;8.10;;;6.23;;
4529;SDS011;2277;51.626;7.516;2023-02-15T03:09:38;9.73;;;6.07;;
4529;SDS011;2277;51.626;7.516;2023-02-15T03:12:07;8.40;;;5.53;;
4529;SDS011;2277;51.626;7.516;2023-02-15T03:14:40;9.73;;;6.77;;
4529;SDS011;2277;51.626;7.516;2023-02-15T03:17:07;9.87;;;6.90;;
4529;SDS011;2277;51.626;7.516;2023-02-15T03:19:34;7.83;;;7.13;;
4529;SDS011;2277;51.626;7.516;2023-02-15T03:22:11;7.73;;;7.00;;
4529;SDS011;2277;51.626;7.516;2023-02-15T03:24:47;7.37;;;6.70;;
4529;SDS011;2277;51.626;7.516;2023-02-15T03:27:34;7.57;;;6.43;;
4529;SDS011;2277;51.626;7.516;2023-02-15T03:30:05;9.30;;;8.60;;
4529;SDS011;2277;51.626;7.516;2023-02-15T03:32:32;15.90;;;6.67;;
4529;SDS011;2277;51.626;7.516;2023-02-15T03:34:59;9.13;;;6.87;;
4529;SDS011;2277;51.626;7.516;2023-02-15T03:37:27;7.50;;;6.90;;
4529;SDS011;2277;51.626;7.516;2023-02-15T03:40:05;7.07;;;6.57;;
4529;SDS011;2277;51.626;7.516;2023-02-15T03:45:40;12.53;;;8.73;;
4529;SDS011;2277;51.626;7.516;2023-02-15T03:48:21;6.73;;;5.83;;
4529;SDS011;2277;51.626;7.516;2023-02-15T03:50:54;9.10;;;6.03;;
4529;SDS011;2277;51.626;7.516;2023-02-15T03:53:42;9.70;;;5.67;;
4529;SDS011;2277;51.626;7.516;2023-02-15T03:56:11;7.03;;;6.43;;
4529;SDS011;2277;51.626;7.516;2023-02-15T03:58:37;7.10;;;6.20;;
4529;SDS011;2277;51.626;7.516;2023-02-15T04:01:31;7.83;;;7.07;;
4529;SDS011;2277;51.626;7.516;2023-02-15T04:04:21;7.03;;;5.60;;
4529;SDS011;2277;51.626;7.516;2023-02-15T04:07:08;6.53;;;5.67;;
4529;SDS011;2277;51.626;7.516;2023-02-15T04:09:34;6.77;;;5.50;;
4529;SDS011;2277;51.626;7.516;2023-02-15T04:12:18;22.40;;;6.17;;
4529;SDS011;2277;51.626;7.516;2023-02-15T04:14:44;9.90;;;7.40;;
4529;SDS011;2277;51.626;7.516;2023-02-15T04:17:28;4.80;;;4.40;;
4529;SDS011;2277;51.626;7.516;2023-02-15T04:19:54;9.83;;;7.63;;
4529;SDS011;2277;51.626;7.516;2023-02-15T04:22:38;8.83;;;6.93;;
4529;SDS011;2277;51.626;7.516;2023-02-15T04:25:22;8.33;;;7.53;;
4529;SDS011;2277;51.626;7.516;2023-02-15T04:27:49;8.13;;;7.43;;
4529;SDS011;2277;51.626;7.516;2023-02-15T04:30:17;8.37;;;7.60;;
4529;SDS011;2277;51.626;7.516;2023-02-15T04:32:44;8.93;;;8.23;;
4529;SDS011;2277;51.626;7.516;2023-02-15T04:35:10;9.63;;;7.30;;
4529;SDS011;2277;51.626;7.516;2023-02-15T04:37:36;7.77;;;6.60;;
4529;SDS011;2277;51.626;7.516;2023-02-15T04:40:03;9.23;;;8.43;;
4529;SDS011;2277;51.626;7.516;2023-02-15T04:42:30;9.63;;;8.80;;
4529;SDS011;2277;51.626;7.516;2023-02-15T04:44:56;16.50;;;8.83;;
4529;SDS011;2277;51.626;7.516;2023-02-15T04:47:22;8.30;;;7.40;;
4529;SDS011;2277;51.626;7.516;2023-02-15T04:49:47;12.27;;;6.93;;
4529;SDS011;2277;51.626;7.516;2023-02-15T04:52:13;10.07;;;9.03;;
4529;SDS011;2277;51.626;7.516;2023-02-15T04:54:39;10.87;;;9.73;;
4529;SDS011;2277;51.626;7.516;2023-02-15T04:57:05;9.60;;;8.77;;
4529;SDS011;2277;51.626;7.516;2023-02-15T04:59:32;9.93;;;8.90;;
4529;SDS011;2277;51.626;7.516;2023-02-15T05:01:57;14.23;;;9.80;;
4529;SDS011;2277;51.626;7.516;2023-02-15T05:04:23;9.10;;;8.27;;
4529;SDS011;2277;51.626;7.516;2023-02-15T05:06:48;8.13;;;7.53;;
4529;SDS011;2277;51.626;7.516;2023-02-15T05:09:14;8.17;;;7.57;;
4529;SDS011;2277;51.626;7.516;2023-02-15T05:11:40;8.87;;;8.07;;
4529;SDS011;2277;51.626;7.516;2023-02-15T05:14:05;14.10;;;7.37;;
4529;SDS011;2277;51.626;7.516;2023-02-15T05:16:31;8.00;;;7.03;;
4529;SDS011;2277;51.626;7.516;2023-02-15T05:18:57;9.93;;;8.70;;
4529;SDS011;2277;51.626;7.516;2023-02-15T05:21:22;9.53;;;8.50;;
4529;SDS011;2277;51.626;7.516;2023-02-15T05:23:48;10.67;;;9.37;;
4529;SDS011;2277;51.626;7.516;2023-02-15T05:26:16;13.80;;;8.63;;
4529;SDS011;2277;51.626;7.516;2023-02-15T05:29:02;9.47;;;8.73;;
4529;SDS011;2277;51.626;7.516;2023-02-15T05:31:28;9.10;;;8.13;;
4529;SDS011;2277;51.626;7.516;2023-02-15T05:33:53;9.30;;;8.33;;
4529;SDS011;2277;51.626;7.516;2023-02-15T05:36:19;8.80;;;7.90;;
4529;SDS011;2277;51.626;7.516;2023-02-15T05:38:44;22.83;;;7.40;;
4529;SDS011;2277;51.626;7.516;2023-02-15T05:41:10;15.87;;;10.07;;
4529;SDS011;2277;51.626;7.516;2023-02-15T05:43:37;9.37;;;7.93;;
4529;SDS011;2277;51.626;7.516;2023-02-15T05:46:03;12.27;;;8.73;;
4529;SDS011;2277;51.626;7.516;2023-02-15T05:48:29;11.60;;;9.40;;
4529;SDS011;2277;51.626;7.516;2023-02-15T05:51:05;9.40;;;8.47;;
4529;SDS011;2277;51.626;7.516;2023-02-15T05:53:38;12.03;;;9.17;;
4529;SDS011;2277;51.626;7.516;2023-02-15T05:56:05;11.53;;;7.47;;
4529;SDS011;2277;51.626;7.516;2023-02-15T05:58:34;7.87;;;6.63;;
4529;SDS011;2277;51.626;7.516;2023-02-15T06:03:33;8.07;;;7.23;;
4529;SDS011;2277;51.626;7.516;2023-02-15T06:05:59;9.17;;;8.30;;
4529;SDS011;2277;51.626;7.516;2023-02-15T06:08:24;12.17;;;8.67;;
4529;SDS011;2277;51.626;7.516;2023-02-15T06:10:50;12.53;;;10.70;;
4529;SDS011;2277;51.626;7.516;2023-02-15T06:13:15;12.30;;;10.37;;
4529;SDS011;2277;51.626;7.516;2023-02-15T06:15:41;15.80;;;7.80;;
4529;SDS011;2277;51.626;7.516;2023-02-15T06:18:07;11.63;;;7.73;;
4529;SDS011;2277;51.626;7.516;2023-02-15T06:20:32;10.70;;;8.57;;
4529;SDS011;2277;51.626;7.516;2023-02-15T06:22:58;7.27;;;6.67;;
4529;SDS011;2277;51.626;7.516;2023-02-15T06:25:23;11.33;;;9.33;;
4529;SDS011;2277;51.626;7.516;2023-02-15T06:27:49;7.40;;;6.80;;
4529;SDS011;2277;51.626;7.516;2023-02-15T06:30:15;10.93;;;10.03;;
4529;SDS011;2277;51.626;7.516;2023-02-15T06:32:41;10.53;;;7.83;;
4529;SDS011;2277;51.626;7.516;2023-02-15T06:35:06;11.77;;;9.60;;
4529;SDS011;2277;51.626;7.516;2023-02-15T06:37:32;13.30;;;8.70;;
4529;SDS011;2277;51.626;7.516;2023-02-15T06:39:58;19.03;;;10.07;;
4529;SDS011;2277;51.626;7.516;2023-02-15T06:42:23;13.67;;;7.70;;
4529;SDS011;2277;51.626;7.516;2023-02-15T06:44:49;10.00;;;8.60;;
4529;SDS011;2277;51.626;7.516;2023-02-15T06:47:14;17.97;;;11.13;;
4529;SDS011;2277;51.626;7.516;2023-02-15T06:49:40;10.40;;;9.30;;
4529;SDS011;2277;51.626;7.516;2023-02-15T06:52:06;13.70;;;9.53;;
4529;SDS011;2277;51.626;7.516;2023-02-15T06:54:31;13.20;;;9.47;;
4529;SDS011;2277;51.626;7.516;2023-02-15T06:56:57;11.03;;;8.87;;
4529;SDS011;2277;51.626;7.516;2023-02-15T06:59:22;12.60;;;9.83;;
4529;SDS011;2277;51.626;7.516;2023-02-15T07:01:48;13.13;;;9.63;;
4529;SDS011;2277;51.626;7.516;2023-02-15T07:04:16;9.77;;;8.93;;
4529;SDS011;2277;51.626;7.516;2023-02-15T07:06:42;9.13;;;8.00;;
4529;SDS011;2277;51.626;7.516;2023-02-15T07:09:08;10.80;;;7.70;;
4529;SDS011;2277;51.626;7.516;2023-02-15T07:11:34;10.33;;;8.53;;
4529;SDS011;2277;51.626;7.516;2023-02-15T07:14:25;9.50;;;8.60;;
4529;SDS011;2277;51.626;7.516;2023-02-15T07:16:51;12.37;;;7.67;;
4529;SDS011;2277;51.626;7.516;2023-02-15T07:19:17;16.47;;;9.60;;
4529;SDS011;2277;51.626;7.516;2023-02-15T07:21:42;8.67;;;7.77;;
4529;SDS011;2277;51.626;7.516;2023-02-15T07:24:10;12.13;;;8.03;;
4529;SDS011;2277;51.626;7.516;2023-02-15T07:26:35;10.53;;;9.73;;
4529;SDS011;2277;51.626;7.516;2023-02-15T07:29:01;9.77;;;8.60;;
4529;SDS011;2277;51.626;7.516;2023-02-15T07:31:27;9.23;;;8.23;;
4529;SDS011;2277;51.626;7.516;2023-02-15T07:33:52;11.90;;;9.60;;
4529;SDS011;2277;51.626;7.516;2023-02-15T07:36:18;12.10;;;10.40;;
4529;SDS011;2277;51.626;7.516;2023-02-15T07:38:43;9.67;;;8.70;;
4529;SDS011;2277;51.626;7.516;2023-02-15T07:41:11;10.00;;;8.13;;
4529;SDS011;2277;51.626;7.516;2023-02-15T07:43:38;11.20;;;10.10;;
4529;SDS011;2277;51.626;7.516;2023-02-15T07:46:06;12.50;;;9.13;;
4529;SDS011;2277;51.626;7.516;2023-02-15T07:48:34;8.93;;;8.00;;
4529;SDS011;2277;51.626;7.516;2023-02-15T07:51:01;11.97;;;10.73;;
4529;SDS011;2277;51.626;7.516;2023-02-15T07:53:29;9.13;;;8.27;;
4529;SDS011;2277;51.626;7.516;2023-02-15T07:55:58;11.37;;;10.27;;
4529;SDS011;2277;51.626;7.516;2023-02-15T07:58:24;11.10;;;9.90;;
4529;SDS011;2277;51.626;7.516;2023-02-15T08:01:10;14.80;;;8.93;;
4529;SDS011;2277;51.626;7.516;2023-02-15T08:03:36;13.00;;;11.70;;
4529;SDS011;2277;51.626;7.516;2023-02-15T08:06:01;15.90;;;12.20;;
4529;SDS011;2277;51.626;7.516;2023-02-15T08:08:27;12.67;;;11.57;;
4529;SDS011;2277;51.626;7.516;2023-02-15T08:11:05;11.97;;;9.13;;
4529;SDS011;2277;51.626;7.516;2023-02-15T08:18:55;13.10;;;9.40;;
4529;SDS011;2277;51.626;7.516;2023-02-15T08:21:22;9.70;;;8.43;;
4529;SDS011;2277;51.626;7.516;2023-02-15T08:23:49;10.90;;;9.33;;
4529;SDS011;2277;51.626;7.516;2023-02-15T08:26:15;20.47;;;13.97;;
4529;SDS011;2277;51.626;7.516;2023-02-15T08:28:42;9.17;;;8.27;;
4529;SDS011;2277;51.626;7.516;2023-02-15T08:31:08;10.73;;;8.80;;
4529;SDS011;2277;51.626;7.516;2023-02-15T08:33:36;11.87;;;10.67;;
4529;SDS011;2277;51.626;7.516;2023-02-15T08:36:07;27.27;;;10.67;;
4529;SDS011;2277;51.626;7.516;2023-02-15T08:38:35;17.40;;;10.60;;
4529;SDS011;2277;51.626;7.516;2023-02-15T08:43:47;13.97;;;12.67;;
4529;SDS011;2277;51.626;7.516;2023-02-15T08:46:16;12.07;;;9.67;;
4529;SDS011;2277;51.626;7.516;2023-02-15T08:48:42;13.20;;;11.97;;
4529;SDS011;2277;51.626;7.516;2023-02-15T08:53:45;12.23;;;9.57;;
4529;SDS011;2277;51.626;7.516;2023-02-15T08:56:14;20.10;;;12.30;;
4529;SDS011;2277;51.626;7.516;2023-02-15T08:58:40;15.80;;;9.63;;
4529;SDS011;2277;51.626;7.516;2023-02-15T09:01:22;13.23;;;8.30;;
4529;SDS011;2277;51.626;7.516;2023-02-15T09:03:56;14.60;;;11.90;;
4529;SDS011;2277;51.626;7.516;2023-02-15T09:06:33;13.80;;;9.70;;
4529;SDS011;2277;51.626;7.516;2023-02-15T09:08:59;11.33;;;9.67;;
4529;SDS011;2277;51.626;7.516;2023-02-15T09:11:26;13.07;;;11.87;;
4529;SDS011;2277;51.626;7.516;2023-02-15T09:13:57;13.90;;;9.60;;
4529;SDS011;2277;51.626;7.516;2023-02-15T09:16:23;13.87;;;12.33;;
4529;SDS011;2277;51.626;7.516;2023-02-15T09:18:50;13.30;;;10.20;;
4529;SDS011;2277;51.626;7.516;2023-02-15T09:21:18;13.80;;;10.87;;
4529;SDS011;2277;51.626;7.516;2023-02-15T09:23:47;17.37;;;13.30;;
4529;SDS011;2277;51.626;7.516;2023-02-15T09:26:15;9.93;;;8.90;;
4529;SDS011;2277;51.626;7.516;2023-02-15T09:28:42;13.53;;;11.30;;
4529;SDS011;2277;51.626;7.516;2023-02-15T09:31:09;13.73;;;11.10;;
4529;SDS011;2277;51.626;7.516;2023-02-15T09:33:37;15.17;;;11.10;;
4529;SDS011;2277;51.626;7.516;2023-02-15T09:36:04;9.80;;;7.83;;
4529;SDS011;2277;51.626;7.516;2023-02-15T09:38:38;12.43;;;8.70;;
4529;SDS011;2277;51.626;7.516;2023-02-15T09:41:10;12.23;;;9.10;;
4529;SDS011;2277;51.626;7.516;2023-02-15T09:55:51;16.60;;;11.70;;
4529;SDS011;2277;51.626;7.516;2023-02-15T10:10:57;13.73;;;8.77;;
4529;SDS011;2277;51.626;7.516;2023-02-15T10:16:33;15.10;;;10.20;;
4529;SDS011;2277;51.626;7.516;2023-02-15T10:25:19;9.23;;;8.07;;
4529;SDS011;2277;51.626;7.516;2023-02-15T10:27:50;15.53;;;9.53;;
4529;SDS011;2277;51.626;7.516;2023-02-15T10:30:22;19.93;;;9.17;;
4529;SDS011;2277;51.626;7.516;2023-02-15T10:33:32;16.60;;;10.00;;
4529;SDS011;2277;51.626;7.516;2023-02-15T10:36:25;16.27;;;10.37;;
4529;SDS011;2277;51.626;7.516;2023-02-15T10:41:30;14.67;;;10.70;;
4529;SDS011;2277;51.626;7.516;2023-02-15T10:44:13;16.00;;;10.40;;
4529;SDS011;2277;51.626;7.516;2023-02-15T10:52:19;16.63;;;12.43;;
4529;SDS011;2277;51.626;7.516;2023-02-15T11:00:36;18.43;;;10.27;;
4529;SDS011;2277;51.626;7.516;2023-02-15T11:06:26;19.70;;;10.63;;
4529;SDS011;2277;51.626;7.516;2023-02-15T11:08:54;19.40;;;11.67;;
4529;SDS011;2277;51.626;7.516;2023-02-15T11:11:43;10.47;;;8.90;;
4529;SDS011;2277;51.626;7.516;2023-02-15T11:14:35;13.00;;;10.70;;
4529;SDS011;2277;51.626;7.516;2023-02-15T11:17:03;13.57;;;12.20;;
4529;SDS011;2277;51.626;7.516;2023-02-15T11:19:58;11.87;;;9.37;;
4529;SDS011;2277;51.626;7.516;2023-02-15T11:22:34;14.83;;;11.67;;
4529;SDS011;2277;51.626;7.516;2023-02-15T11:25:01;10.63;;;9.57;;
4529;SDS011;2277;51.626;7.516;2023-02-15T11:27:39;19.13;;;10.60;;
4529;SDS011;2277;51.626;7.516;2023-02-15T11:30:09;12.60;;;11.07;;
4529;SDS011;2277;51.626;7.516;2023-02-15T11:32:45;12.57;;;9.70;;
4529;SDS011;2277;51.626;7.516;2023-02-15T11:46:20;19.67;;;9.30;;
4529;SDS011;2277;51.626;7.516;2023-02-15T11:48:46;15.70;;;11.23;;
4529;SDS011;2277;51.626;7.516;2023-02-15T11:51:13;14.10;;;10.03;;
4529;SDS011;2277;51.626;7.516;2023-02-15T11:53:41;10.47;;;8.70;;
4529;SDS011;2277;51.626;7.516;2023-02-15T11:56:18;9.57;;;8.50;;
4529;SDS011;2277;51.626;7.516;2023-02-15T11:58:51;20.13;;;9.90;;
4529;SDS011;2277;51.626;7.516;2023-02-15T12:04:25;9.83;;;8.13;;
4529;SDS011;2277;51.626;7.516;2023-02-15T12:06:55;10.67;;;8.77;;
4529;SDS011;2277;51.626;7.516;2023-02-15T12:12:34;11.10;;;6.70;;
4529;SDS011;2277;51.626;7.516;2023-02-15T12:14:59;12.03;;;9.70;;
4529;SDS011;2277;51.626;7.516;2023-02-15T12:17:26;11.60;;;7.07;;
4529;SDS011;2277;51.626;7.516;2023-02-15T12:19:56;8.13;;;6.00;;
4529;SDS011;2277;51.626;7.516;2023-02-15T12:22:26;6.00;;;5.50;;
4529;SDS011;2277;51.626;7.516;2023-02-15T12:25:01;17.77;;;7.60;;
4529;SDS011;2277;51.626;7.516;2023-02-15T12:27:36;11.40;;;7.60;;
4529;SDS011;2277;51.626;7.516;2023-02-15T12:30:25;6.70;;;6.00;;
4529;SDS011;2277;51.626;7.516;2023-02-15T12:35:46;5.90;;;4.57;;
4529;SDS011;2277;51.626;7.516;2023-02-15T12:40:40;4.70;;;4.30;;
4529;SDS011;2277;51.626;7.516;2023-02-15T12:43:23;6.97;;;5.90;;
4529;SDS011;2277;51.626;7.516;2023-02-15T12:46:06;12.50;;;7.30;;
4529;SDS011;2277;51.626;7.516;2023-02-15T12:48:39;9.97;;;5.00;;
4529;SDS011;2277;51.626;7.516;2023-02-15T12:51:07;7.83;;;5.60;;
4529;SDS011;2277;51.626;7.516;2023-02-15T12:53:34;12.30;;;6.47;;
4529;SDS011;2277;51.626;7.516;2023-02-15T12:56:02;18.27;;;5.93;;
4529;SDS011;2277;51.626;7.516;2023-02-15T12:58:30;8.07;;;5.77;;
4529;SDS011;2277;51.626;7.516;2023-02-15T13:01:17;7.70;;;6.30;;
4529;SDS011;2277;51.626;7.516;2023-02-15T13:04:03;12.47;;;7.40;;
4529;SDS011;2277;51.626;7.516;2023-02-15T13:06:32;6.07;;;4.17;;
4529;SDS011;2277;51.626;7.516;2023-02-15T13:09:07;7.73;;;4.50;;
4529;SDS011;2277;51.626;7.516;2023-02-15T13:11:45;9.27;;;6.23;;
4529;SDS011;2277;51.626;7.516;2023-02-15T13:14:54;15.27;;;5.63;;
4529;SDS011;2277;51.626;7.516;2023-02-15T13:17:02;9.63;;;6.77;;
4529;SDS011;2277;51.626;7.516;2023-02-15T13:19:37;15.53;;;8.23;;
4529;SDS011;2277;51.626;7.516;2023-02-15T13:22:06;10.57;;;6.80;;
4529;SDS011;2277;51.626;7.516;2023-02-15T13:24:39;7.03;;;6.23;;
4529;SDS011;2277;51.626;7.516;2023-02-15T13:27:12;15.17;;;6.07;;
4529;SDS011;2277;51.626;7.516;2023-02-15T13:29:43;7.07;;;5.73;;
4529;SDS011;2277;51.626;7.516;2023-02-15T13:32:33;7.67;;;4.97;;
4529;SDS011;2277;51.626;7.516;2023-02-15T13:35:01;12.73;;;7.40;;
4529;SDS011;2277;51.626;7.516;2023-02-15T13:40:32;6.90;;;4.57;;
4529;SDS011;2277;51.626;7.516;2023-02-15T13:56:19;7.30;;;4.90;;
4529;SDS011;2277;51.626;7.516;2023-02-15T14:07:45;7.87;;;6.13;;
4529;SDS011;2277;51.626;7.516;2023-02-15T14:19:47;7.80;;;6.20;;
4529;SDS011;2277;51.626;7.516;2023-02-15T14:27:04;8.63;;;6.40;;
4529;SDS011;2277;51.626;7.516;2023-02-15T14:29:47;8.10;;;6.13;;
4529;SDS011;2277;51.626;7.516;2023-02-15T14:32:14;8.03;;;5.67;;
4529;SDS011;2277;51.626;7.516;2023-02-15T14:35:05;7.63;;;6.10;;
4529;SDS011;2277;51.626;7.516;2023-02-15T14:37:44;4.63;;;4.23;;
4529;SDS011;2277;51.626;7.516;2023-02-15T14:49:21;4.47;;;3.83;;
4529;SDS011;2277;51.626;7.516;2023-02-15T14:52:00;5.17;;;3.47;;
4529;SDS011;2277;51.626;7.516;2023-02-15T14:59:45;8.37;;;5.50;;
4529;SDS011;2277;51.626;7.516;2023-02-15T15:02:17;5.47;;;4.90;;
4529;SDS011;2277;51.626;7.516;2023-02-15T15:12:49;8.27;;;6.10;;
4529;SDS011;2277;51.626;7.516;2023-02-15T15:18:00;6.97;;;4.93;;
4529;SDS011;2277;51.626;7.516;2023-02-15T15:20:49;5.10;;;4.60;;
4529;SDS011;2277;51.626;7.516;2023-02-15T15:25:44;13.83;;;6.03;;
4529;SDS011;2277;51.626;7.516;2023-02-15T15:36:37;7.30;;;3.70;;
4529;SDS011;2277;51.626;7.516;2023-02-15T15:42:12;14.23;;;6.07;;
4529;SDS011;2277;51.626;7.516;2023-02-15T15:49:58;13.03;;;6.80;;
4529;SDS011;2277;51.626;7.516;2023-02-15T15:52:24;6.43;;;5.00;;
4529;SDS011;2277;51.626;7.516;2023-02-15T15:54:57;11.07;;;4.80;;
4529;SDS011;2277;51.626;7.516;2023-02-15T15:57:37;7.27;;;6.17;;
4529;SDS011;2277;51.626;7.516;2023-02-15T16:00:04;7.30;;;4.67;;
4529;SDS011;2277;51.626;7.516;2023-02-15T16:02:51;6.83;;;4.80;;
4529;SDS011;2277;51.626;7.516;2023-02-15T16:05:18;12.03;;;5.47;;
4529;SDS011;2277;51.626;7.516;2023-02-15T16:07:44;4.73;;;4.43;;
4529;SDS011;2277;51.626;7.516;2023-02-15T16:10:43;10.70;;;4.80;;
4529;SDS011;2277;51.626;7.516;2023-02-15T16:13:04;19.33;;;9.77;;
4529;SDS011;2277;51.626;7.516;2023-02-15T16:18:17;12.97;;;4.67;;
4529;SDS011;2277;51.626;7.516;2023-02-15T16:20:58;8.33;;;4.97;;
4529;SDS011;2277;51.626;7.516;2023-02-15T16:28:56;6.53;;;5.83;;
4529;SDS011;2277;51.626;7.516;2023-02-15T16:31:21;10.73;;;8.57;;
4529;SDS011;2277;51.626;7.516;2023-02-15T16:33:48;6.10;;;3.67;;
4529;SDS011;2277;51.626;7.516;2023-02-15T16:36:22;7.80;;;6.00;;
4529;SDS011;2277;51.626;7.516;2023-02-15T16:43:46;11.27;;;5.57;;
4529;SDS011;2277;51.626;7.516;2023-02-15T16:46:16;9.13;;;6.57;;
4529;SDS011;2277;51.626;7.516;2023-02-15T16:48:48;15.70;;;7.07;;
4529;SDS011;2277;51.626;7.516;2023-02-15T16:51:21;6.07;;;4.00;;
4529;SDS011;2277;51.626;7.516;2023-02-15T16:53:52;10.83;;;5.53;;
4529;SDS011;2277;51.626;7.516;2023-02-15T16:56:22;9.97;;;8.43;;
4529;SDS011;2277;51.626;7.516;2023-02-15T16:58:51;8.87;;;6.53;;
4529;SDS011;2277;51.626;7.516;2023-02-15T17:01:19;9.57;;;6.77;;
4529;SDS011;2277;51.626;7.516;2023-02-15T17:03:49;17.90;;;12.53;;
4529;SDS011;2277;51.626;7.516;2023-02-15T17:06:20;10.67;;;7.23;;
4529;SDS011;2277;51.626;7.516;2023-02-15T17:08:47;7.03;;;6.33;;
4529;SDS011;2277;51.626;7.516;2023-02-15T17:16:34;5.93;;;5.37;;
4529;SDS011;2277;51.626;7.516;2023-02-15T17:19:02;12.70;;;7.33;;
4529;SDS011;2277;51.626;7.516;2023-02-15T17:21:41;13.27;;;7.60;;
4529;SDS011;2277;51.626;7.516;2023-02-15T17:24:15;7.17;;;6.50;;
4529;SDS011;2277;51.626;7.516;2023-02-15T17:26:59;9.70;;;6.50;;
4529;SDS011;2277;51.626;7.516;2023-02-15T17:29:33;8.43;;;6.30;;
4529;SDS011;2277;51.626;7.516;2023-02-15T17:31:59;10.43;;;6.87;;
4529;SDS011;2277;51.626;7.516;2023-02-15T17:40:13;9.97;;;6.50;;
4529;SDS011;2277;51.626;7.516;2023-02-15T17:42:44;11.73;;;6.70;;
4529;SDS011;2277;51.626;7.516;2023-02-15T17:45:10;6.37;;;4.87;;
4529;SDS011;2277;51.626;7.516;2023-02-15T17:47:36;10.87;;;6.10;;
4529;SDS011;2277;51.626;7.516;2023-02-15T17:50:02;10.13;;;7.60;;
4529;SDS011;2277;51.626;7.516;2023-02-15T17:52:29;9.07;;;6.77;;
4529;SDS011;2277;51.626;7.516;2023-02-15T17:54:55;6.27;;;5.73;;
4529;SDS011;2277;51.626;7.516;2023-02-15T17:57:40;13.70;;;7.60;;
4529;SDS011;2277;51.626;7.516;2023-02-15T18:00:06;8.37;;;5.57;;
4529;SDS011;2277;51.626;7.516;2023-02-15T18:02:51;6.20;;;4.67;;
4529;SDS011;2277;51.626;7.516;2023-02-15T18:05:36;7.50;;;6.13;;
4529;SDS011;2277;51.626;7.516;2023-02-15T18:08:22;6.73;;;6.03;;
4529;SDS011;2277;51.626;7.516;2023-02-15T18:11:10;7.10;;;5.30;;
4529;SDS011;2277;51.626;7.516;2023-02-15T18:13:54;8.33;;;5.90;;
4529;SDS011;2277;51.626;7.516;2023-02-15T18:16:25;8.27;;;7.47;;
4529;SDS011;2277;51.626;7.516;2023-02-15T18:18:53;8.10;;;6.03;;
4529;SDS011;2277;51.626;7.516;2023-02-15T18:21:19;6.10;;;5.50;;
4529;SDS011;2277;51.626;7.516;2023-02-15T18:23:45;9.10;;;7.73;;
4529;SDS011;2277;51.626;7.516;2023-02-15T18:26:21;7.93;;;5.80;;
4529;SDS011;2277;51.626;7.516;2023-02-15T18:28:48;7.30;;;6.67;;
4529;SDS011;2277;51.626;7.516;2023-02-15T18:31:14;7.90;;;6.63;;
4529;SDS011;2277;51.626;7.516;2023-02-15T18:33:49;11.37;;;8.33;;
4529;SDS011;2277;51.626;7.516;2023-02-15T18:36:25;11.03;;;6.50;;
4529;SDS011;2277;51.626;7.516;2023-02-15T18:38:54;12.30;;;9.33;;
4529;SDS011;2277;51.626;7.516;2023-02-15T18:41:21;13.03;;;8.20;;
4529;SDS011;2277;51.626;7.516;2023-02-15T18:43:47;10.93;;;7.33;;
4529;SDS011;2277;51.626;7.516;2023-02-15T18:46:13;7.13;;;6.23;;
4529;SDS011;2277;51.626;7.516;2023-02-15T18:48:40;9.37;;;8.40;;
4529;SDS011;2277;51.626;7.516;2023-02-15T18:51:15;9.43;;;6.13;;
4529;SDS011;2277;51.626;7.516;2023-02-15T18:53:43;11.73;;;8.63;;
4529;SDS011;2277;51.626;7.516;2023-02-15T18:56:14;12.90;;;9.37;;
4529;SDS011;2277;51.626;7.516;2023-02-15T18:58:41;10.70;;;6.63;;
4529;SDS011;2277;51.626;7.516;2023-02-15T19:01:12;13.00;;;7.47;;
4529;SDS011;2277;51.626;7.516;2023-02-15T19:03:41;8.63;;;5.87;;
4529;SDS011;2277;51.626;7.516;2023-02-15T19:06:09;9.00;;;6.60;;
4529;SDS011;2277;51.626;7.516;2023-02-15T19:08:36;7.93;;;7.00;;
4529;SDS011;2277;51.626;7.516;2023-02-15T19:11:02;9.50;;;6.07;;
4529;SDS011;2277;51.626;7.516;2023-02-15T19:13:27;9.07;;;6.77;;
4529;SDS011;2277;51.626;7.516;2023-02-15T19:15:53;9.20;;;7.13;;